Jupiter, FL (33458)

5:52 AM EST on December 07, 2016 (GMT -0500)
Pennock Ln. | | Change Station

Elev 20 ft 26.94 °N, 80.11 °W | Updated 6 seconds ago

Overcast
Overcast
72.1 °F
Feels Like 72.1 °F
N
2.1
Wind Variable Wind from NW
Gusts 6.9 mph

Today
High -- | Low -- °F
--% Chance of Precip.
Yesterday
High -- | Low -- °F
Precip. -- in
Pressure 30.02 in
Visibility 7.0 miles
Clouds Overcast 800 ft
Dew Point 70 °F
Humidity 92%
Rainfall 0.00 in
Snow Depth Not available.
6:57 AM 5:27 PM
Waxing Crescent, 51% visible
METAR KSUA 071035Z AUTO 31003KT 7SM OVC008 22/21 A3002 RMK AO2
Pressure 30.02 in
Visibility 7.0 miles
Clouds Overcast 800 ft
Dew Point 70 °F
Humidity 92%
Rainfall 0.00 in
Snow Depth Not available.
6:57 AM 5:27 PM
Waxing Crescent, 51% visible
METAR KSUA 071035Z AUTO 31003KT 7SM OVC008 22/21 A3002 RMK AO2

10-Day Weather Forecast

Almanac

Astronomy

Dec. 07, 2016 Rise Set
Actual Time
Civil Twilight
Nautical Twilight
Astronomical Twilight
Moon
Length of Visible Light
Length of Day
Tomorrow will be .
, % of the Moon is Illuminated

Today's Extremes

State Highs State Lows

Community

WunderPhotos

Upload Photos

1,956,111 photos uploaded!

WunderBlog® & News

Nearby

Air Quality

  Air Quality AQ Index Pollutant
Not available.

Snow Depth

Station Depth Elevation

Earthquake Activity

City Distance Mag. Time & Date
Minimum magnitude displayed is 2.5.

Coastal Water Temperatures

Place Temperature

Stations

Nearby Weather Stations

Station Location Temp. Windchill Dew Point Humidity Wind Precip. Elev Updated Type
                   

Watches & Warnings

There are currently no watches in effect.